Weather reports worldwide

Advertisment
Mt. St.Vincent, France (7382): temperature & dewpoint: 16.07.2019 04:00:00 - 22.07.2019 04:00:00 (CEST)Mt. St.Vincent, France (7382): wind speed & gusts: 16.07.2019 04:00:00 - 22.07.2019 04:00:00 (CEST)Mt. St.Vincent, France (7382): wind direction: 16.07.2019 04:00:00 - 22.07.2019 04:00:00 (CEST)Mt. St.Vincent, France (7382): sunshine duration: 16.07.2019 04:00:00 - 22.07.2019 04:00:00 (CEST)Mt. St.Vincent, France (7382): precipitation: 16.07.2019 04:00:00 - 22.07.2019 04:00:00 (CEST)
Date & Time tt [°C] td [°C] ff [km/h] ff [kn] fx [km/h] fx [kn] dd sd [min] rr [mm]
22.07.2019 04:00:00 - - - - - - - - -
22.07.2019 03:00:00 20,6 11,8 18 10 34 18 NE 0 0,0
22.07.2019 02:00:00 21,2 10,9 18 10 26 14 NE 0 -
22.07.2019 01:00:00 22,4 10,2 11 6 26 14 N 0 0,0
22.07.2019 00:00:00 22,9 10,0 9 5 28 15 N 0 0,0
21.07.2019 23:00:00 22,8 9,6 8 4 18 10 NNW 0 0,0
21.07.2019 22:00:00 23,1 10,5 4 2 13 7 N 0 0,0
21.07.2019 21:00:00 25,2 11,4 4 2 11 6 N 36 0,0
21.07.2019 20:00:00 27,3 12,5 4 2 13 7 NNW 48 -
21.07.2019 19:00:00 28,5 12,8 4 2 22 12 NNW 60 0,0
21.07.2019 18:00:00 28,7 13,8 5 3 26 14 WNW 60 0,0
21.07.2019 17:00:00 28,6 13,7 15 8 34 18 W 60 0,0
21.07.2019 16:00:00 27,8 14,4 18 10 37 20 W 54 0,0
21.07.2019 15:00:00 26,4 14,5 15 8 37 20 WSW 48 0,0
21.07.2019 14:00:00 25,4 17,6 11 6 24 13 WSW 30 -
21.07.2019 13:00:00 25,3 17,5 9 5 21 11 W 48 0,0
21.07.2019 12:00:00 24,0 16,8 8 4 16 9 W 48 0,0
21.07.2019 11:00:00 22,5 17,0 8 4 16 9 W 36 0,0
21.07.2019 10:00:00 21,0 16,8 4 2 16 9 W 42 0,0
21.07.2019 09:00:00 19,6 15,9 8 4 16 9 WNW 60 0,0
21.07.2019 08:00:00 18,5 15,7 8 4 22 12 WNW 48 -
21.07.2019 07:00:00 17,4 15,4 9 5 24 13 WNW 0 0,0
21.07.2019 06:00:00 17,6 16,1 13 7 28 15 WNW 0 0,0
21.07.2019 05:00:00 18,1 16,6 15 8 24 13 WNW 0 0,0
21.07.2019 04:00:00 18,8 16,4 13 7 22 12 W 0 0,0
21.07.2019 03:00:00 18,9 16,5 13 7 28 15 W 0 0,0
21.07.2019 02:00:00 19,0 17,0 18 10 28 15 W 0 -
21.07.2019 01:00:00 18,8 17,8 16 9 24 13 WSW 0 0,0
21.07.2019 00:00:00 19,4 17,9 15 8 29 16 WSW 0 1,0
20.07.2019 23:00:00 19,0 18,2 8 4 39 21 WNW 0 4,0
20.07.2019 22:00:00 21,2 16,8 8 4 29 16 SW 0 2,0
20.07.2019 21:00:00 23,5 17,7 13 7 28 15 W 0 0,6
20.07.2019 20:00:00 25,8 14,3 11 6 21 11 WNW 0 -
20.07.2019 19:00:00 26,7 13,4 16 9 34 18 W 12 0,0
20.07.2019 18:00:00 29,1 11,6 18 10 44 24 WSW 12 0,0
20.07.2019 17:00:00 29,8 10,4 18 10 39 21 SW 36 0,0
20.07.2019 16:00:00 30,3 10,8 18 10 44 24 WSW 48 0,0
20.07.2019 15:00:00 30,8 10,2 16 9 37 20 SW 60 0,0
20.07.2019 14:00:00 29,0 11,5 16 9 37 20 WSW 42 -
20.07.2019 13:00:00 26,3 12,0 21 11 34 18 SSW 42 0,0
20.07.2019 12:00:00 23,2 13,4 22 12 37 20 WSW 12 0,0
20.07.2019 11:00:00 20,0 13,0 13 7 46 25 SSE 0 0,0
20.07.2019 10:00:00 22,3 11,1 26 14 42 23 WSW 12 0,0
20.07.2019 09:00:00 23,2 10,9 21 11 34 18 WSW 60 0,0
20.07.2019 08:00:00 22,7 10,2 18 10 29 16 SW 48 -
20.07.2019 07:00:00 21,8 10,3 21 11 39 21 SSW 0 0,0
20.07.2019 06:00:00 21,1 10,6 22 12 42 23 SW 0 0,0
20.07.2019 05:00:00 20,7 10,8 22 12 29 16 SSW 0 0,0
20.07.2019 04:00:00 21,2 11,2 16 9 28 15 SSE 0 0,0
20.07.2019 03:00:00 21,0 11,9 22 12 31 17 ESE 0 0,0
20.07.2019 02:00:00 21,2 12,1 22 12 34 18 ESE 0 -
20.07.2019 01:00:00 21,5 12,1 26 14 37 20 ESE 0 0,0
20.07.2019 00:00:00 21,5 12,6 26 14 35 19 ESE 0 0,0
19.07.2019 23:00:00 22,0 12,3 15 8 21 11 E 0 0,0
19.07.2019 22:00:00 22,5 11,2 9 5 13 7 ENE 0 0,0
19.07.2019 21:00:00 25,0 11,5 0 0 15 8 N 36 0,0
19.07.2019 20:00:00 26,5 11,8 8 4 22 12 W 60 -
19.07.2019 19:00:00 26,9 11,4 11 6 28 15 W 60 0,0
19.07.2019 18:00:00 27,0 11,5 11 6 28 15 W 60 0,0
19.07.2019 17:00:00 26,6 12,3 11 6 28 15 W 60 0,0
19.07.2019 16:00:00 26,2 12,3 13 7 29 16 W 60 0,0
19.07.2019 15:00:00 25,0 12,6 15 8 29 16 WSW 54 0,0
19.07.2019 14:00:00 25,0 12,6 15 8 28 15 W 54 -
19.07.2019 13:00:00 23,4 11,8 18 10 29 16 WSW 54 0,0
19.07.2019 12:00:00 22,6 12,8 15 8 34 18 W 60 0,0
19.07.2019 11:00:00 20,7 13,2 15 8 29 16 W 60 0,0
19.07.2019 10:00:00 19,0 13,8 18 10 29 16 W 60 0,0
19.07.2019 09:00:00 17,1 13,2 15 8 26 14 W 60 0,0
19.07.2019 08:00:00 15,5 12,3 16 9 24 13 W 60 -
19.07.2019 07:00:00 14,1 11,4 16 9 29 16 W 18 0,0
19.07.2019 06:00:00 14,9 11,7 21 11 31 17 W 0 0,0
19.07.2019 05:00:00 15,2 11,2 21 11 31 17 W 0 0,0
19.07.2019 04:00:00 15,6 11,0 18 10 31 17 W 0 0,0
19.07.2019 03:00:00 16,4 10,7 22 12 41 22 W 0 0,0
19.07.2019 02:00:00 17,3 10,4 28 15 44 24 W 0 -
19.07.2019 01:00:00 17,9 9,3 21 11 34 18 WNW 0 0,0
19.07.2019 00:00:00 18,2 9,5 16 9 28 15 WNW 0 0,0
18.07.2019 23:00:00 18,5 9,8 11 6 28 15 WNW 0 0,0
18.07.2019 22:00:00 19,2 10,2 11 6 26 14 WNW 0 0,0
18.07.2019 21:00:00 20,6 10,1 8 4 34 18 WNW 6 0,0
18.07.2019 20:00:00 22,4 10,2 11 6 39 21 WNW 54 -
18.07.2019 19:00:00 23,4 9,4 22 12 44 24 WNW 60 0,0
18.07.2019 18:00:00 23,5 8,7 24 13 41 22 W 60 0,0
18.07.2019 17:00:00 23,9 9,1 16 9 42 23 WNW 60 0,0
18.07.2019 16:00:00 24,0 9,2 22 12 42 23 WNW 60 0,0
18.07.2019 15:00:00 23,3 10,0 24 13 46 25 W 48 0,0
18.07.2019 14:00:00 21,8 10,3 28 15 48 26 W 42 -
18.07.2019 13:00:00 22,1 9,9 34 18 54 29 W 60 0,0
18.07.2019 12:00:00 20,9 9,5 31 17 55 30 W 60 0,0
18.07.2019 11:00:00 19,8 11,0 35 19 50 27 W 60 0,0
18.07.2019 10:00:00 18,6 10,9 31 17 48 26 W 60 0,0
18.07.2019 09:00:00 16,5 10,6 29 16 44 24 W 60 0,0
18.07.2019 08:00:00 16,4 10,5 29 16 41 22 W 48 -
18.07.2019 07:00:00 15,9 10,0 26 14 35 19 W 30 0,0
18.07.2019 06:00:00 16,1 9,7 24 13 35 19 W 0 0,0
18.07.2019 05:00:00 17,2 9,4 16 9 28 15 WNW 0 0,0
18.07.2019 04:00:00 18,2 7,3 15 8 22 12 W 0 0,0
18.07.2019 03:00:00 19,8 6,5 15 8 18 10 E 0 0,0
18.07.2019 02:00:00 20,3 7,0 15 8 21 11 E 0 -
18.07.2019 01:00:00 19,7 7,4 11 6 15 8 ENE 0 0,0
18.07.2019 00:00:00 21,5 7,0 8 4 21 11 N 0 0,0
17.07.2019 23:00:00 20,7 6,6 5 3 16 9 N 0 0,0
17.07.2019 22:00:00 20,7 6,6 4 2 24 13 NW 0 0,0
17.07.2019 21:00:00 22,4 7,0 11 6 28 15 WNW 18 0,0
17.07.2019 20:00:00 24,2 7,3 13 7 29 16 WNW 36 -
17.07.2019 19:00:00 26,5 5,4 15 8 28 15 W 54 0,0
17.07.2019 18:00:00 27,2 5,5 13 7 24 13 W 60 0,0
17.07.2019 17:00:00 27,3 5,5 13 7 29 16 W 60 0,0
17.07.2019 16:00:00 27,5 5,7 9 5 34 18 WNW 60 0,0
17.07.2019 15:00:00 26,4 6,9 18 10 35 19 W 60 0,0
17.07.2019 14:00:00 26,1 7,2 9 5 28 15 WNW 60 -
17.07.2019 13:00:00 - - - - - - - - -
17.07.2019 12:00:00 23,8 8,6 9 5 22 12 W 60 0,0
17.07.2019 11:00:00 22,4 9,9 5 3 15 8 NW 60 0,0
17.07.2019 10:00:00 20,9 9,5 4 2 11 6 NW 60 0,0
17.07.2019 09:00:00 20,1 8,7 5 3 21 11 NE 60 0,0
17.07.2019 08:00:00 18,4 8,4 11 6 22 12 ENE 60 -
17.07.2019 07:00:00 17,2 7,5 15 8 24 13 NE 30 0,0
17.07.2019 06:00:00 16,7 6,8 16 9 28 15 NE 0 0,0
17.07.2019 05:00:00 16,8 6,9 16 9 26 14 NE 0 0,0
17.07.2019 04:00:00 17,3 7,1 18 10 29 16 NE 0 0,0
17.07.2019 03:00:00 18,0 6,8 13 7 26 14 NE 0 0,0
17.07.2019 02:00:00 18,3 6,8 11 6 29 16 NNE 0 -
17.07.2019 01:00:00 18,7 6,5 13 7 34 18 NNE 0 0,0
17.07.2019 00:00:00 19,5 6,6 11 6 28 15 N 0 0,0
16.07.2019 23:00:00 20,3 6,2 8 4 18 10 N 0 0,0
16.07.2019 22:00:00 20,5 7,5 4 2 13 7 NNW 0 0,0
16.07.2019 21:00:00 22,9 8,9 4 2 21 11 NW 12 0,0
16.07.2019 20:00:00 23,6 10,6 9 5 26 14 WNW 30 -
16.07.2019 19:00:00 26,2 9,5 13 7 26 14 WNW 60 0,0
16.07.2019 18:00:00 27,7 6,4 5 3 24 13 NW 60 0,0
16.07.2019 17:00:00 25,8 9,2 8 4 22 12 WSW 48 0,0
16.07.2019 16:00:00 26,4 9,7 11 6 22 12 WNW 60 0,0
16.07.2019 15:00:00 26,1 8,6 8 4 18 10 NNW 60 0,0
16.07.2019 14:00:00 24,9 10,4 5 3 18 10 NW 60 -
16.07.2019 13:00:00 23,4 9,0 5 3 16 9 N 60 0,0
16.07.2019 12:00:00 22,5 10,6 4 2 16 9 N 60 0,0
16.07.2019 11:00:00 21,0 11,9 5 3 13 7 N 60 0,0
16.07.2019 10:00:00 18,9 11,2 5 3 22 12 N 60 0,0
16.07.2019 09:00:00 18,4 11,2 8 4 21 11 NNE 60 0,0
16.07.2019 08:00:00 16,4 10,3 9 5 24 13 N 60 -
16.07.2019 07:00:00 15,7 10,2 13 7 28 15 NE 30 0,0
16.07.2019 06:00:00 14,4 9,4 13 7 28 15 NNE 0 0,0
16.07.2019 05:00:00 14,9 9,3 16 9 34 18 NNE 0 0,0
16.07.2019 04:00:00 15,6 9,3 16 9 35 19 NNE 0 0,0

tt = temperature
td = dewpoint
ff = wind speed
fx = gusts
dd = wind direction
sd = sunshine duration
rr = precipitation

Next stations